createdAt,value
2017-03-03T00:00:02.068Z,73303
2017-03-03T00:00:12.604Z,73300
2017-03-03T00:00:22.793Z,73302
2017-03-03T00:00:32.605Z,73304
2017-03-03T00:00:43.187Z,73302
2017-03-03T00:00:53.730Z,73304
2017-03-03T00:01:04.287Z,73305
2017-03-03T00:01:14.843Z,73307
2017-03-03T00:01:25.387Z,73298
2017-03-03T00:01:35.957Z,73307
2017-03-03T00:01:46.492Z,73306
2017-03-03T00:01:57.022Z,73308
2017-03-03T00:02:07.207Z,73304
2017-03-03T00:02:17.757Z,73300
2017-03-03T00:02:28.334Z,73303
2017-03-03T00:02:38.906Z,73303
2017-03-03T00:02:49.088Z,73302
2017-03-03T00:02:59.688Z,73300
2017-03-03T00:03:09.835Z,73304
2017-03-03T00:03:20.365Z,73302
2017-03-03T00:03:30.561Z,73309
2017-03-03T00:03:40.767Z,73308
2017-03-03T00:03:50.953Z,73304
2017-03-03T00:04:01.521Z,73303
2017-03-03T00:04:12.080Z,73310
2017-03-03T00:04:22.622Z,73302
2017-03-03T00:04:32.781Z,73300
2017-03-03T00:04:43.322Z,73306
2017-03-03T00:04:53.492Z,73305
2017-03-03T00:05:03.666Z,73305
2017-03-03T00:05:14.205Z,73306
2017-03-03T00:05:24.754Z,73308
2017-03-03T00:05:35.301Z,73306
2017-03-03T00:05:45.151Z,73302
2017-03-03T00:05:55.691Z,73304
2017-03-03T00:06:05.864Z,73300
2017-03-03T00:06:16.447Z,73301
2017-03-03T00:06:26.606Z,73305
2017-03-03T00:06:36.795Z,73306
2017-03-03T00:06:46.972Z,73303
2017-03-03T00:06:57.149Z,73306
2017-03-03T00:07:07.696Z,73303
2017-03-03T00:07:18.263Z,73303
2017-03-03T00:07:28.804Z,73298
2017-03-03T00:07:39.341Z,73298
2017-03-03T00:07:49.935Z,73302
2017-03-03T00:08:00.492Z,73303
2017-03-03T00:08:10.691Z,73304
2017-03-03T00:08:21.258Z,73304
2017-03-03T00:08:31.871Z,73302
2017-03-03T00:08:41.659Z,73301
2017-03-03T00:08:52.213Z,73304
2017-03-03T00:09:02.397Z,73304
2017-03-03T00:09:12.947Z,73300
2017-03-03T00:09:23.501Z,73304
2017-03-03T00:09:34.056Z,73297
2017-03-03T00:09:44.627Z,73294
2017-03-03T00:09:55.214Z,73296
2017-03-03T00:10:05.391Z,73297
2017-03-03T00:10:15.933Z,73296
2017-03-03T00:10:26.493Z,73297
2017-03-03T00:10:37.065Z,73295
2017-03-03T00:10:47.608Z,73299
2017-03-03T00:10:57.819Z,73294
2017-03-03T00:11:08.009Z,73300
2017-03-03T00:11:18.559Z,73299
2017-03-03T00:11:28.744Z,73300
2017-03-03T00:11:38.932Z,73298
2017-03-03T00:11:49.483Z,73302
2017-03-03T00:12:00.019Z,73302
2017-03-03T00:12:10.565Z,73301
2017-03-03T00:12:21.103Z,73299
2017-03-03T00:12:31.686Z,73301
2017-03-03T00:12:42.234Z,73294
2017-03-03T00:12:52.782Z,73297
2017-03-03T00:13:03.291Z,73303
2017-03-03T00:13:13.821Z,73301
2017-03-03T00:13:24.371Z,73301
2017-03-03T00:13:34.960Z,73297
2017-03-03T00:13:45.525Z,73299
2017-03-03T00:13:55.717Z,73298
2017-03-03T00:14:05.920Z,73297
2017-03-03T00:14:16.146Z,73301
2017-03-03T00:14:26.715Z,73301
2017-03-03T00:14:36.909Z,73296
2017-03-03T00:14:47.511Z,73302
2017-03-03T00:14:58.054Z,73295
2017-03-03T00:15:08.592Z,73300
2017-03-03T00:15:19.147Z,73301
2017-03-03T00:15:29.693Z,73301
2017-03-03T00:15:40.305Z,73300
2017-03-03T00:15:50.871Z,73299
2017-03-03T00:16:01.037Z,73300
2017-03-03T00:16:11.270Z,73300
2017-03-03T00:16:21.440Z,73303
2017-03-03T00:16:31.981Z,73298
2017-03-03T00:16:42.522Z,73305
2017-03-03T00:16:53.073Z,73295
2017-03-03T00:17:03.639Z,73296
2017-03-03T00:17:14.172Z,73294
2017-03-03T00:17:24.714Z,73301
2017-03-03T00:17:35.254Z,73301
2017-03-03T00:17:45.763Z,73301
2017-03-03T00:17:56.342Z,73295
2017-03-03T00:18:06.903Z,73298
2017-03-03T00:18:17.461Z,73301
2017-03-03T00:18:28.031Z,73302
2017-03-03T00:18:38.572Z,73303
2017-03-03T00:18:49.128Z,73296
2017-03-03T00:18:59.322Z,73298
2017-03-03T00:19:09.858Z,73291
2017-03-03T00:19:20.038Z,73294
2017-03-03T00:19:30.221Z,73295
2017-03-03T00:19:40.388Z,73297
2017-03-03T00:19:50.946Z,73300
2017-03-03T00:20:01.452Z,73298
2017-03-03T00:20:12.013Z,73296
2017-03-03T00:20:22.572Z,73298
2017-03-03T00:20:33.124Z,73298
2017-03-03T00:20:43.682Z,73303
2017-03-03T00:20:53.867Z,73295
2017-03-03T00:21:04.113Z,73295
2017-03-03T00:21:14.656Z,73294
2017-03-03T00:21:25.208Z,73294
2017-03-03T00:21:35.387Z,73300
2017-03-03T00:21:45.916Z,73297
2017-03-03T00:21:56.483Z,73294
2017-03-03T00:22:07.006Z,73290
2017-03-03T00:22:17.156Z,73296
2017-03-03T00:22:27.715Z,73299
2017-03-03T00:22:38.251Z,73292
2017-03-03T00:22:48.804Z,73296
2017-03-03T00:22:58.975Z,73296
2017-03-03T00:23:09.576Z,73296
2017-03-03T00:23:20.140Z,73299
2017-03-03T00:23:30.312Z,73288
2017-03-03T00:23:40.874Z,73291
2017-03-03T00:23:51.053Z,73295
2017-03-03T00:24:01.594Z,73291
2017-03-03T00:24:12.143Z,73296
2017-03-03T00:24:22.694Z,73290
2017-03-03T00:24:32.877Z,73298
2017-03-03T00:24:43.426Z,73297
2017-03-03T00:24:53.623Z,73293
2017-03-03T00:25:03.832Z,73295
2017-03-03T00:25:14.384Z,73298
2017-03-03T00:25:24.935Z,73293
2017-03-03T00:25:35.130Z,73293
2017-03-03T00:25:45.699Z,73292
2017-03-03T00:25:56.250Z,73289
2017-03-03T00:26:06.814Z,73294
2017-03-03T00:26:16.631Z,73294
2017-03-03T00:26:27.150Z,73295
2017-03-03T00:26:37.314Z,73294
2017-03-03T00:26:47.909Z,73297
2017-03-03T00:26:58.471Z,73292
2017-03-03T00:27:09.015Z,73293
2017-03-03T00:27:19.173Z,73294
2017-03-03T00:27:29.744Z,73296
2017-03-03T00:27:40.303Z,73290
2017-03-03T00:27:50.502Z,73286
2017-03-03T00:28:00.686Z,73291
2017-03-03T00:28:10.862Z,73292
2017-03-03T00:28:21.446Z,73293
2017-03-03T00:28:31.996Z,73290
2017-03-03T00:28:42.552Z,73292
2017-03-03T00:28:52.758Z,73288
2017-03-03T00:29:03.279Z,73294
2017-03-03T00:29:13.822Z,73293
2017-03-03T00:29:24.417Z,73290
2017-03-03T00:29:34.990Z,73292
2017-03-03T00:29:45.192Z,73292
2017-03-03T00:29:55.010Z,73294
2017-03-03T00:30:05.172Z,73296
2017-03-03T00:30:15.720Z,73292
2017-03-03T00:30:25.915Z,73293
2017-03-03T00:30:36.442Z,73295
2017-03-03T00:30:46.978Z,73291
2017-03-03T00:30:57.489Z,73293
2017-03-03T00:31:08.034Z,73296
2017-03-03T00:31:18.578Z,73293
2017-03-03T00:31:29.108Z,73288
2017-03-03T00:31:39.683Z,73293
2017-03-03T00:31:50.228Z,73293
2017-03-03T00:32:00.759Z,73289
2017-03-03T00:32:11.297Z,73291
2017-03-03T00:32:21.829Z,73291
2017-03-03T00:32:32.361Z,73294
2017-03-03T00:32:42.534Z,73288
2017-03-03T00:32:52.742Z,73287
2017-03-03T00:33:03.331Z,73295
2017-03-03T00:33:13.909Z,73286
2017-03-03T00:33:24.452Z,73291
2017-03-03T00:33:34.642Z,73288
2017-03-03T00:33:45.208Z,73292
2017-03-03T00:33:55.773Z,73289
2017-03-03T00:34:06.319Z,73290
2017-03-03T00:34:16.884Z,73287
2017-03-03T00:34:27.077Z,73288
2017-03-03T00:34:37.608Z,73290
2017-03-03T00:34:47.759Z,73284
2017-03-03T00:34:57.933Z,73283
2017-03-03T00:35:08.463Z,73291
2017-03-03T00:35:19.016Z,73287
2017-03-03T00:35:29.555Z,73287
2017-03-03T00:35:40.105Z,73288
2017-03-03T00:35:50.651Z,73280
2017-03-03T00:36:01.193Z,73285
2017-03-03T00:36:11.744Z,73287
2017-03-03T00:36:22.289Z,73280
2017-03-03T00:36:32.846Z,73281
2017-03-03T00:36:43.392Z,73289
2017-03-03T00:36:53.991Z,73286
2017-03-03T00:37:04.548Z,73284
2017-03-03T00:37:15.107Z,73282
2017-03-03T00:37:25.663Z,73283
2017-03-03T00:37:36.208Z,73286
2017-03-03T00:37:46.744Z,73288
2017-03-03T00:37:57.281Z,73281
2017-03-03T00:38:07.467Z,73287
2017-03-03T00:38:18.025Z,73290
2017-03-03T00:38:28.616Z,73281
2017-03-03T00:38:38.824Z,73283
2017-03-03T00:38:49.418Z,73284
2017-03-03T00:38:59.977Z,73286
2017-03-03T00:39:10.497Z,73288
2017-03-03T00:39:21.034Z,73281
2017-03-03T00:39:31.570Z,73284
2017-03-03T00:39:42.105Z,73280
2017-03-03T00:39:52.722Z,73283
2017-03-03T00:40:03.262Z,73281
2017-03-03T00:40:13.057Z,73279
2017-03-03T00:40:23.239Z,73281
2017-03-03T00:40:33.806Z,73282
2017-03-03T00:40:44.344Z,73286
2017-03-03T00:40:54.868Z,73291
2017-03-03T00:41:05.435Z,73286
2017-03-03T00:41:15.990Z,73288
2017-03-03T00:41:26.556Z,73285
2017-03-03T00:41:37.122Z,73283
2017-03-03T00:41:47.688Z,73284
2017-03-03T00:41:57.861Z,73280
2017-03-03T00:42:08.398Z,73285
2017-03-03T00:42:18.947Z,73284
2017-03-03T00:42:29.496Z,73287
2017-03-03T00:42:40.031Z,73284
2017-03-03T00:42:50.628Z,73284
2017-03-03T00:43:00.814Z,73284
2017-03-03T00:43:11.388Z,73286
2017-03-03T00:43:21.972Z,73283
2017-03-03T00:43:32.540Z,73284
2017-03-03T00:43:43.088Z,73281
2017-03-03T00:43:53.267Z,73283
2017-03-03T00:44:03.471Z,73282
2017-03-03T00:44:13.990Z,73286
2017-03-03T00:44:24.506Z,73287
2017-03-03T00:44:35.052Z,73289
2017-03-03T00:44:45.631Z,73284
2017-03-03T00:44:55.833Z,73285
2017-03-03T00:45:06.050Z,73281
2017-03-03T00:45:16.616Z,73283
2017-03-03T00:45:26.789Z,73282
2017-03-03T00:45:36.994Z,73281
2017-03-03T00:45:47.558Z,73287
2017-03-03T00:45:58.132Z,73283
2017-03-03T00:46:08.707Z,73282
2017-03-03T00:46:19.255Z,73285
2017-03-03T00:46:29.447Z,73282
2017-03-03T00:46:39.673Z,73284
2017-03-03T00:46:50.248Z,73287
2017-03-03T00:47:00.818Z,73283
2017-03-03T00:47:11.359Z,73283
2017-03-03T00:47:21.902Z,73281
2017-03-03T00:47:32.443Z,73288
2017-03-03T00:47:42.984Z,73282
2017-03-03T00:47:53.549Z,73284
2017-03-03T00:48:04.080Z,73287
2017-03-03T00:48:14.664Z,73284
2017-03-03T00:48:25.220Z,73286
2017-03-03T00:48:35.751Z,73285
2017-03-03T00:48:46.302Z,73285
2017-03-03T00:48:56.859Z,73285
2017-03-03T00:49:07.397Z,73286
2017-03-03T00:49:17.923Z,73290
2017-03-03T00:49:27.740Z,73280
2017-03-03T00:49:37.912Z,73286
2017-03-03T00:49:48.056Z,73285
2017-03-03T00:49:58.621Z,73279
2017-03-03T00:50:09.170Z,73280
2017-03-03T00:50:18.937Z,73281
2017-03-03T00:50:29.521Z,73280
2017-03-03T00:50:39.695Z,73279
2017-03-03T00:50:50.244Z,73286
2017-03-03T00:51:00.826Z,73280
2017-03-03T00:51:11.047Z,73281
2017-03-03T00:51:21.593Z,73281
2017-03-03T00:51:31.823Z,73276
2017-03-03T00:51:42.010Z,73278
2017-03-03T00:51:52.544Z,73279
2017-03-03T00:52:03.111Z,73277
2017-03-03T00:52:13.330Z,73275
2017-03-03T00:52:23.874Z,73278
2017-03-03T00:52:34.050Z,73275
2017-03-03T00:52:44.591Z,73277
2017-03-03T00:52:55.170Z,73276
2017-03-03T00:53:05.729Z,73275
2017-03-03T00:53:16.312Z,73277
2017-03-03T00:53:26.871Z,73274
2017-03-03T00:53:37.082Z,73281
2017-03-03T00:53:47.623Z,73276
2017-03-03T00:53:58.183Z,73276
2017-03-03T00:54:08.351Z,73277
2017-03-03T00:54:18.897Z,73273
2017-03-03T00:54:29.152Z,73277
2017-03-03T00:54:39.365Z,73282
2017-03-03T00:54:49.922Z,73276
2017-03-03T00:55:00.504Z,73277
2017-03-03T00:55:10.695Z,73272
2017-03-03T00:55:21.302Z,73271
2017-03-03T00:55:31.485Z,73269
2017-03-03T00:55:42.025Z,73274
2017-03-03T00:55:52.600Z,73268
2017-03-03T00:56:03.155Z,73271
2017-03-03T00:56:13.349Z,73270
2017-03-03T00:56:23.533Z,73277
2017-03-03T00:56:34.074Z,73271
2017-03-03T00:56:44.628Z,73269
2017-03-03T00:56:55.176Z,73270
2017-03-03T00:57:05.775Z,73265
2017-03-03T00:57:16.317Z,73263
2017-03-03T00:57:25.734Z,73271
2017-03-03T00:57:35.540Z,73268
2017-03-03T00:57:46.067Z,73269
2017-03-03T00:57:56.632Z,73266
2017-03-03T00:58:07.220Z,73269
2017-03-03T00:58:17.384Z,73268
2017-03-03T00:58:27.944Z,73272
2017-03-03T00:58:38.487Z,73273
2017-03-03T00:58:49.035Z,73266
2017-03-03T00:58:59.595Z,73269
2017-03-03T00:59:10.171Z,73267
2017-03-03T00:59:20.755Z,73263
2017-03-03T00:59:30.913Z,73266
2017-03-03T00:59:41.459Z,73266
2017-03-03T00:59:51.643Z,73267
2017-03-03T01:00:02.198Z,73271
2017-03-03T01:00:12.743Z,73269
2017-03-03T01:00:23.276Z,73270
2017-03-03T01:00:33.839Z,73269
2017-03-03T01:00:44.419Z,73267
2017-03-03T01:00:54.607Z,73265
2017-03-03T01:01:05.166Z,73268
2017-03-03T01:01:15.715Z,73265
2017-03-03T01:01:26.263Z,73265
2017-03-03T01:01:36.487Z,73266
2017-03-03T01:01:47.044Z,73267
2017-03-03T01:01:57.593Z,73268
2017-03-03T01:02:08.151Z,73267
2017-03-03T01:02:18.724Z,73271
2017-03-03T01:02:28.912Z,73266
2017-03-03T01:02:39.467Z,73269
2017-03-03T01:02:50.008Z,73266
2017-03-03T01:03:00.583Z,73263
2017-03-03T01:03:11.148Z,73267
2017-03-03T01:03:21.694Z,73265
2017-03-03T01:03:31.884Z,73266
2017-03-03T01:03:42.449Z,73267
2017-03-03T01:03:52.652Z,73266
2017-03-03T01:04:03.225Z,73265
2017-03-03T01:04:13.802Z,73265
2017-03-03T01:04:24.357Z,73262
2017-03-03T01:04:34.538Z,73263
2017-03-03T01:04:45.074Z,73262
2017-03-03T01:04:55.652Z,73263
2017-03-03T01:05:06.235Z,73263
2017-03-03T01:05:16.393Z,73266
2017-03-03T01:05:26.941Z,73266
2017-03-03T01:05:37.119Z,73264
2017-03-03T01:05:47.288Z,73267
2017-03-03T01:05:57.465Z,73262
2017-03-03T01:06:07.982Z,73262
2017-03-03T01:06:18.552Z,73265
2017-03-03T01:06:29.122Z,73260
2017-03-03T01:06:39.311Z,73264
2017-03-03T01:06:49.478Z,73260
2017-03-03T01:07:00.057Z,73260
2017-03-03T01:07:10.643Z,73259
2017-03-03T01:07:21.213Z,73263
2017-03-03T01:07:31.436Z,73261
2017-03-03T01:07:41.976Z,73260
2017-03-03T01:07:52.504Z,73255
2017-03-03T01:08:03.060Z,73261
2017-03-03T01:08:13.239Z,73253
2017-03-03T01:08:23.822Z,73259
2017-03-03T01:08:33.993Z,73258
2017-03-03T01:08:44.537Z,73258
2017-03-03T01:08:55.111Z,73255
2017-03-03T01:09:05.699Z,73257
2017-03-03T01:09:16.233Z,73257
2017-03-03T01:09:26.799Z,73258
2017-03-03T01:09:37.349Z,73254
2017-03-03T01:09:47.916Z,73256
2017-03-03T01:09:58.476Z,73259
2017-03-03T01:10:08.641Z,73260
2017-03-03T01:10:19.193Z,73253
2017-03-03T01:10:29.352Z,73254
2017-03-03T01:10:39.165Z,73252
2017-03-03T01:10:49.368Z,73255
2017-03-03T01:10:59.931Z,73253
2017-03-03T01:11:10.473Z,73255
2017-03-03T01:11:21.061Z,73258
2017-03-03T01:11:31.611Z,73255
2017-03-03T01:11:42.181Z,73256
2017-03-03T01:11:52.756Z,73253
2017-03-03T01:12:03.301Z,73256
2017-03-03T01:12:13.485Z,73256
2017-03-03T01:12:24.055Z,73258
2017-03-03T01:12:34.577Z,73255
2017-03-03T01:12:44.750Z,73261
2017-03-03T01:12:54.880Z,73257
2017-03-03T01:13:05.469Z,73254
2017-03-03T01:13:15.993Z,73258
2017-03-03T01:13:26.585Z,73255
2017-03-03T01:13:36.391Z,73256
2017-03-03T01:13:46.932Z,73251
2017-03-03T01:13:57.465Z,73257
2017-03-03T01:14:07.650Z,73257
2017-03-03T01:14:17.824Z,73256
2017-03-03T01:14:28.020Z,73254
2017-03-03T01:14:38.204Z,73255
2017-03-03T01:14:48.729Z,73250
2017-03-03T01:14:58.914Z,73253
2017-03-03T01:15:09.503Z,73251
2017-03-03T01:15:20.043Z,73250
2017-03-03T01:15:30.227Z,73252
2017-03-03T01:15:40.800Z,73248
2017-03-03T01:15:50.986Z,73250
2017-03-03T01:16:01.536Z,73250
2017-03-03T01:16:12.081Z,73249
2017-03-03T01:16:22.634Z,73253
2017-03-03T01:16:32.823Z,73250
2017-03-03T01:16:43.367Z,73247
2017-03-03T01:16:53.923Z,73252
2017-03-03T01:17:04.484Z,73252
2017-03-03T01:17:15.047Z,73251
2017-03-03T01:17:25.608Z,73253
2017-03-03T01:17:36.141Z,73250
2017-03-03T01:17:46.324Z,73253
2017-03-03T01:17:56.865Z,73248
2017-03-03T01:18:07.425Z,73252
2017-03-03T01:18:18.018Z,73253
2017-03-03T01:18:28.624Z,73250
2017-03-03T01:18:39.171Z,73249
2017-03-03T01:18:49.350Z,73256
2017-03-03T01:18:59.925Z,73253
2017-03-03T01:19:10.521Z,73247
2017-03-03T01:19:20.682Z,73253
2017-03-03T01:19:31.213Z,73250
2017-03-03T01:19:41.772Z,73252
2017-03-03T01:19:52.320Z,73254
2017-03-03T01:20:02.949Z,73251
2017-03-03T01:20:13.151Z,73252
2017-03-03T01:20:23.696Z,73250
2017-03-03T01:20:34.239Z,73249
2017-03-03T01:20:44.062Z,73255
2017-03-03T01:20:54.241Z,73250
2017-03-03T01:21:04.776Z,73248
2017-03-03T01:21:15.321Z,73248
2017-03-03T01:21:25.512Z,73247
2017-03-03T01:21:36.051Z,73246
2017-03-03T01:21:46.594Z,73250
2017-03-03T01:21:57.116Z,73253
2017-03-03T01:22:07.695Z,73249
2017-03-03T01:22:18.229Z,73248
2017-03-03T01:22:28.771Z,73250
2017-03-03T01:22:38.965Z,73243
2017-03-03T01:22:49.537Z,73246
2017-03-03T01:23:00.084Z,73249
2017-03-03T01:23:10.629Z,73248
2017-03-03T01:23:21.162Z,73251
2017-03-03T01:23:31.741Z,73244
2017-03-03T01:23:42.310Z,73249
2017-03-03T01:23:52.854Z,73249
2017-03-03T01:24:03.053Z,73245
2017-03-03T01:24:13.598Z,73252
2017-03-03T01:24:24.148Z,73246
2017-03-03T01:24:34.716Z,73249
2017-03-03T01:24:45.313Z,73249
2017-03-03T01:24:55.497Z,73250
2017-03-03T01:25:06.104Z,73252
2017-03-03T01:25:16.654Z,73252
2017-03-03T01:25:27.197Z,73254
2017-03-03T01:25:37.782Z,73251
2017-03-03T01:25:47.973Z,73251
2017-03-03T01:25:58.506Z,73249
2017-03-03T01:26:09.028Z,73251
2017-03-03T01:26:19.562Z,73248
2017-03-03T01:26:30.120Z,73248
2017-03-03T01:26:40.336Z,73248
2017-03-03T01:26:50.905Z,73249
2017-03-03T01:27:01.462Z,73248
2017-03-03T01:27:12.016Z,73248
2017-03-03T01:27:22.550Z,73251
2017-03-03T01:27:33.089Z,73248
2017-03-03T01:27:43.253Z,73245
2017-03-03T01:27:53.813Z,73248
2017-03-03T01:28:04.007Z,73245
2017-03-03T01:28:14.564Z,73245
2017-03-03T01:28:25.123Z,73247
2017-03-03T01:28:35.295Z,73245
2017-03-03T01:28:45.863Z,73245
2017-03-03T01:28:56.409Z,73245
2017-03-03T01:29:06.983Z,73242
2017-03-03T01:29:17.565Z,73247
2017-03-03T01:29:28.107Z,73244
2017-03-03T01:29:38.702Z,73246
2017-03-03T01:29:49.264Z,73246
2017-03-03T01:29:59.838Z,73246
2017-03-03T01:30:10.379Z,73246
2017-03-03T01:30:20.889Z,73246
2017-03-03T01:30:31.500Z,73246
2017-03-03T01:30:42.033Z,73247
2017-03-03T01:30:52.195Z,73247
2017-03-03T01:31:02.754Z,73248
2017-03-03T01:31:13.368Z,73243
2017-03-03T01:31:23.887Z,73244
2017-03-03T01:31:34.473Z,73250
2017-03-03T01:31:45.025Z,73247
2017-03-03T01:31:55.211Z,73248
2017-03-03T01:32:05.750Z,73247
2017-03-03T01:32:16.317Z,73251
2017-03-03T01:32:26.845Z,73246
2017-03-03T01:32:37.415Z,73249
2017-03-03T01:32:47.989Z,73244
2017-03-03T01:32:58.545Z,73247
2017-03-03T01:33:09.076Z,73250
2017-03-03T01:33:19.592Z,73243
2017-03-03T01:33:30.179Z,73247
2017-03-03T01:33:40.705Z,73245
2017-03-03T01:33:51.281Z,73247
2017-03-03T01:34:01.822Z,73251
2017-03-03T01:34:12.390Z,73245
2017-03-03T01:34:22.923Z,73251
2017-03-03T01:34:33.478Z,73248
2017-03-03T01:34:44.038Z,73246
2017-03-03T01:34:54.604Z,73250
2017-03-03T01:35:04.778Z,73250
2017-03-03T01:35:15.325Z,73255
2017-03-03T01:35:25.523Z,73251
2017-03-03T01:35:36.101Z,73253
2017-03-03T01:35:46.647Z,73251
2017-03-03T01:35:56.434Z,73253
2017-03-03T01:36:06.650Z,73255
2017-03-03T01:36:17.193Z,73253
2017-03-03T01:36:27.770Z,73254
2017-03-03T01:36:38.305Z,73253
2017-03-03T01:36:48.905Z,73250
2017-03-03T01:36:59.467Z,73254
2017-03-03T01:37:10.025Z,73256
2017-03-03T01:37:20.576Z,73253
2017-03-03T01:37:31.116Z,73251
2017-03-03T01:37:41.670Z,73254
2017-03-03T01:37:52.237Z,73255
2017-03-03T01:38:02.803Z,73247
2017-03-03T01:38:12.992Z,73251
2017-03-03T01:38:23.175Z,73252
2017-03-03T01:38:33.739Z,73251
2017-03-03T01:38:44.309Z,73252
2017-03-03T01:38:54.903Z,73250
2017-03-03T01:39:05.443Z,73255
2017-03-03T01:39:16.045Z,73253
2017-03-03T01:39:26.590Z,73249
2017-03-03T01:39:37.129Z,73254
2017-03-03T01:39:47.666Z,73250
2017-03-03T01:39:58.222Z,73252
2017-03-03T01:40:08.004Z,73251
2017-03-03T01:40:18.585Z,73248
2017-03-03T01:40:29.117Z,73253
2017-03-03T01:40:39.676Z,73250
2017-03-03T01:40:49.844Z,73248
2017-03-03T01:40:59.999Z,73253
2017-03-03T01:41:10.166Z,73251
2017-03-03T01:41:20.719Z,73249
2017-03-03T01:41:30.888Z,73249
2017-03-03T01:41:41.460Z,73247
2017-03-03T01:41:52.002Z,73249
2017-03-03T01:42:02.233Z,73252
2017-03-03T01:42:12.391Z,73253
2017-03-03T01:42:22.537Z,73250
2017-03-03T01:42:32.729Z,73250
2017-03-03T01:42:43.301Z,73252
2017-03-03T01:42:53.119Z,73248
2017-03-03T01:43:03.740Z,73250
2017-03-03T01:43:13.981Z,73251
2017-03-03T01:43:24.530Z,73249
2017-03-03T01:43:35.135Z,73250
2017-03-03T01:43:45.658Z,73248
2017-03-03T01:43:55.109Z,73254
2017-03-03T01:44:05.643Z,73247
2017-03-03T01:44:15.808Z,73254
2017-03-03T01:44:26.364Z,73255
2017-03-03T01:44:36.543Z,73254
2017-03-03T01:44:47.070Z,73253
2017-03-03T01:44:57.251Z,73251
2017-03-03T01:45:07.804Z,73255
2017-03-03T01:45:18.364Z,73250
2017-03-03T01:45:28.911Z,73252
2017-03-03T01:45:38.760Z,73252
2017-03-03T01:45:49.288Z,73253
2017-03-03T01:45:59.104Z,73254
2017-03-03T01:46:09.635Z,73253
2017-03-03T01:46:20.190Z,73256
2017-03-03T01:46:30.011Z,73255
2017-03-03T01:46:40.548Z,73257
2017-03-03T01:46:51.074Z,73256
2017-03-03T01:47:01.242Z,73254
2017-03-03T01:47:11.824Z,73253
2017-03-03T01:47:22.347Z,73252
2017-03-03T01:47:32.520Z,73253
2017-03-03T01:47:43.072Z,73250
2017-03-03T01:47:53.262Z,73254
2017-03-03T01:48:03.810Z,73251
2017-03-03T01:48:14.377Z,73249
2017-03-03T01:48:24.963Z,73252
2017-03-03T01:48:35.508Z,73249
2017-03-03T01:48:46.111Z,73252
2017-03-03T01:48:56.684Z,73250
2017-03-03T01:49:07.225Z,73247
2017-03-03T01:49:17.376Z,73249
2017-03-03T01:49:27.897Z,73250
2017-03-03T01:49:38.430Z,73251
2017-03-03T01:49:49.022Z,73254
2017-03-03T01:49:59.183Z,73253
2017-03-03T01:50:09.408Z,73252
2017-03-03T01:50:19.953Z,73253
2017-03-03T01:50:30.130Z,73258
2017-03-03T01:50:40.295Z,73249
2017-03-03T01:50:50.828Z,73253
2017-03-03T01:51:01.041Z,73253
2017-03-03T01:51:11.580Z,73252
2017-03-03T01:51:22.128Z,73255
2017-03-03T01:51:32.676Z,73252
2017-03-03T01:51:43.243Z,73253
2017-03-03T01:51:53.789Z,73253
2017-03-03T01:52:04.354Z,73255
2017-03-03T01:52:14.892Z,73249
2017-03-03T01:52:25.088Z,73254
2017-03-03T01:52:35.655Z,73253
2017-03-03T01:52:46.238Z,73252
2017-03-03T01:52:56.821Z,73252
2017-03-03T01:53:07.359Z,73255
2017-03-03T01:53:17.903Z,73250
2017-03-03T01:53:28.076Z,73249
2017-03-03T01:53:38.299Z,73252
2017-03-03T01:53:48.837Z,73254
2017-03-03T01:53:59.364Z,73252
2017-03-03T01:54:09.598Z,73255
2017-03-03T01:54:20.134Z,73255
2017-03-03T01:54:30.698Z,73254
2017-03-03T01:54:41.263Z,73251
2017-03-03T01:54:51.802Z,73255
2017-03-03T01:55:02.361Z,73254
2017-03-03T01:55:12.956Z,73251
2017-03-03T01:55:23.502Z,73253
2017-03-03T01:55:34.029Z,73252
2017-03-03T01:55:44.613Z,73250
2017-03-03T01:55:55.151Z,73253
2017-03-03T01:56:05.702Z,73249
2017-03-03T01:56:15.524Z,73247
2017-03-03T01:56:26.081Z,73252
2017-03-03T01:56:36.626Z,73250
2017-03-03T01:56:47.178Z,73251
2017-03-03T01:56:57.356Z,73254
2017-03-03T01:57:07.541Z,73251
2017-03-03T01:57:17.712Z,73251
2017-03-03T01:57:28.309Z,73252
2017-03-03T01:57:38.948Z,73247
2017-03-03T01:57:49.170Z,73252
2017-03-03T01:57:59.704Z,73255
2017-03-03T01:58:10.247Z,73253
2017-03-03T01:58:20.449Z,73249
2017-03-03T01:58:30.620Z,73251
2017-03-03T01:58:41.164Z,73250
2017-03-03T01:58:51.711Z,73253
2017-03-03T01:59:02.279Z,73254
2017-03-03T01:59:12.837Z,73247
2017-03-03T01:59:23.030Z,73249
2017-03-03T01:59:33.208Z,73249
2017-03-03T01:59:43.750Z,73252
2017-03-03T01:59:54.299Z,73256
2017-03-03T02:00:04.904Z,73250
2017-03-03T02:00:15.523Z,73246
2017-03-03T02:00:26.039Z,73250
2017-03-03T02:00:36.582Z,73252
2017-03-03T02:00:47.145Z,73251
2017-03-03T02:00:57.699Z,73250
2017-03-03T02:01:07.900Z,73250
2017-03-03T02:01:18.459Z,73252
2017-03-03T02:01:29.025Z,73251
2017-03-03T02:01:39.588Z,73253
2017-03-03T02:01:50.152Z,73251
2017-03-03T02:02:00.709Z,73248
2017-03-03T02:02:10.539Z,73251
2017-03-03T02:02:21.128Z,73246
2017-03-03T02:02:31.696Z,73247
2017-03-03T02:02:42.230Z,73248
2017-03-03T02:02:52.804Z,73253
2017-03-03T02:03:03.316Z,73250
2017-03-03T02:03:13.882Z,73247
2017-03-03T02:03:24.449Z,73245
2017-03-03T02:03:34.630Z,73249
2017-03-03T02:03:45.253Z,73246
2017-03-03T02:03:55.427Z,73244
2017-03-03T02:04:05.977Z,73249
2017-03-03T02:04:16.509Z,73246
2017-03-03T02:04:27.041Z,73241
2017-03-03T02:04:36.836Z,73244
2017-03-03T02:04:47.402Z,73245
2017-03-03T02:04:57.593Z,73243
2017-03-03T02:05:08.136Z,73241
2017-03-03T02:05:18.667Z,73245
2017-03-03T02:05:29.226Z,73242
2017-03-03T02:05:39.789Z,73243
2017-03-03T02:05:50.332Z,73244
2017-03-03T02:06:00.514Z,73245
2017-03-03T02:06:11.078Z,73244
2017-03-03T02:06:21.646Z,73239
2017-03-03T02:06:32.209Z,73246
2017-03-03T02:06:42.797Z,73244
2017-03-03T02:06:52.984Z,73241
2017-03-03T02:07:03.551Z,73245
2017-03-03T02:07:13.734Z,73243
2017-03-03T02:07:24.268Z,73248
2017-03-03T02:07:34.808Z,73247
2017-03-03T02:07:45.386Z,73239
2017-03-03T02:07:55.192Z,73245
2017-03-03T02:08:05.380Z,73241
2017-03-03T02:08:15.562Z,73243
2017-03-03T02:08:25.354Z,73240
2017-03-03T02:08:35.544Z,73245
2017-03-03T02:08:46.098Z,73237
2017-03-03T02:08:56.642Z,73240
2017-03-03T02:09:07.201Z,73243
2017-03-03T02:09:17.735Z,73241
2017-03-03T02:09:27.938Z,73239
2017-03-03T02:09:38.497Z,73242
2017-03-03T02:09:49.062Z,73239
2017-03-03T02:09:59.624Z,73237
2017-03-03T02:10:10.157Z,73245
2017-03-03T02:10:20.729Z,73238
2017-03-03T02:10:31.308Z,73239
2017-03-03T02:10:41.505Z,73242
2017-03-03T02:10:52.050Z,73240
2017-03-03T02:11:02.562Z,73238
2017-03-03T02:11:13.085Z,73236
2017-03-03T02:11:23.616Z,73237
2017-03-03T02:11:33.441Z,73235
2017-03-03T02:11:43.968Z,73241
2017-03-03T02:11:54.514Z,73239
2017-03-03T02:12:05.034Z,73241
2017-03-03T02:12:15.235Z,73237
2017-03-03T02:12:25.795Z,73237
2017-03-03T02:12:36.339Z,73232
2017-03-03T02:12:46.517Z,73237
2017-03-03T02:12:57.093Z,73235
2017-03-03T02:13:07.601Z,73241
2017-03-03T02:13:18.143Z,73237
2017-03-03T02:13:27.970Z,73238
2017-03-03T02:13:38.504Z,73241
2017-03-03T02:13:49.058Z,73235
2017-03-03T02:13:59.616Z,73236
2017-03-03T02:14:10.201Z,73234
2017-03-03T02:14:20.720Z,73233